Skip Navigation Links Skip Navigation Links

Current Weather

San Francisco International, San Francisco

For information only: do not use for flight planning or navigation.
Latest weather
Observation time Friday, February 21, 2020 12:56 AM PST
Local time Friday, February 21, 2020 1:14 AM PST
Flight conditions Visual Meteorological Conditions
Winds
Wind speed calm
Visibility 10 mi.
Sky condition
Ceiling 18,000 ft. broken clouds
Cloud layer broken clouds 18,000 ft.
Temperature 54°F
Dewpoint 44°F
Altimeter 30.09 in.Hg
Pressure change last 3 hours0.02 in.Hg
Pressure falling more quickly
Derived measurements
Relative humidity 69%
Density altitude -371 ft.
Sea-level pressure 30.09 in.Hg
Remarks
Automated weather observing station with precipitation discriminator.
METAR KSFO 210856Z 00000KT 10SM BKN180 12/07 A3009 RMK AO2 SLP190 T01220067 58006

Settings

Location code

InnerDrive.Weather 4.0.6770.0 Release CLR 4.0.30319.42000
Copyright ©2018 Inner Drive Technology. All rights reserved. Portions Copyright ©1986-2018 David Braverman.

Find weather

Site navigation


Skip Navigation Links

Place info

Page info

PayPal - The safer, easier way to pay online!

Return home.

Copyright ©2020 Inner Drive Technology. Purveyors of fine, hand-crafted computer software. Page printed 2020-02-21T09:14:54 UTC.